Time;durP1;ratioP1;P1;durP2;ratioP2;P2;SDS_P1;SDS_P2;PMS_P1;PMS_P2;Temp;Humidity;BMP_temperature;BMP_pressure;BME280_temperature;BME280_humidity;BME280_pressure;Samples;Min_cycle;Max_cycle;Signal;HPM_P1;HPM_P2
2023/06/06 00:00:11;;;;;;;6.68;2.30;;;;;;;21.46;50.10;101409.25;4994168;28;20414;-77
2023/06/06 00:02:43;;;;;;;5.03;2.35;;;;;;;21.41;49.95;101400.97;4975412;28;20378;-77
2023/06/06 00:05:13;;;;;;;8.77;2.78;;;;;;;21.45;49.78;101416.53;4976022;28;20930;-78
2023/06/06 00:07:43;;;;;;;5.33;2.20;;;;;;;21.45;49.58;101411.13;4994822;28;20381;-78
2023/06/06 00:10:14;;;;;;;7.03;2.30;;;;;;;21.27;49.76;101408.41;4995200;28;20739;-78
2023/06/06 00:12:46;;;;;;;7.50;2.55;;;;;;;21.21;49.58;101402.03;4995156;28;20377;-79
2023/06/06 00:15:13;;;;;;;5.57;2.10;;;;;;;21.06;49.84;101405.09;4994923;28;20394;-79
2023/06/06 00:17:40;;;;;;;4.85;2.10;;;;;;;21.04;49.90;101404.50;4993591;28;20468;-78
2023/06/06 00:20:09;;;;;;;5.80;2.03;;;;;;;20.95;49.96;101401.25;4992246;28;20413;-77
2023/06/06 00:22:39;;;;;;;6.18;2.30;;;;;;;20.81;50.23;101405.97;4993499;28;20417;-78
2023/06/06 00:25:05;;;;;;;6.07;2.30;;;;;;;20.85;49.95;101406.34;4994197;28;20393;-77
2023/06/06 00:27:34;;;;;;;8.05;2.30;;;;;;;20.93;49.71;101407.94;4996469;28;20867;-78
2023/06/06 00:30:00;;;;;;;5.00;2.05;;;;;;;20.96;49.63;101411.00;4994207;28;20394;-77
2023/06/06 00:32:27;;;;;;;7.45;2.30;;;;;;;20.88;49.65;101407.75;4990387;28;20493;-79
2023/06/06 00:34:53;;;;;;;7.00;2.80;;;;;;;20.83;49.64;101413.00;4990913;28;20394;-77
2023/06/06 00:37:19;;;;;;;5.60;2.10;;;;;;;20.77;49.68;101404.75;4992453;28;20381;-76
2023/06/06 00:39:45;;;;;;;7.05;2.35;;;;;;;20.80;49.74;101414.28;4976114;28;20417;-77
2023/06/06 00:42:10;;;;;;;7.20;2.30;;;;;;;20.69;49.91;101405.03;4992872;28;20859;-77
2023/06/06 00:44:36;;;;;;;7.50;2.10;;;;;;;20.74;49.71;101398.97;4992832;28;20381;-77
2023/06/06 00:47:02;;;;;;;7.10;2.40;;;;;;;20.74;49.72;101405.19;4994510;28;20401;-79
2023/06/06 00:49:28;;;;;;;5.68;2.35;;;;;;;20.74;49.76;101407.91;4993711;28;20392;-79
2023/06/06 00:51:54;;;;;;;3.97;2.03;;;;;;;20.58;50.07;101403.00;4993442;28;20378;-78
2023/06/06 00:54:20;;;;;;;5.78;2.28;;;;;;;20.48;50.25;101397.31;4991914;28;20476;-78
2023/06/06 00:56:49;;;;;;;5.47;1.92;;;;;;;20.20;50.57;101406.59;4992939;28;20878;-78
2023/06/06 00:59:16;;;;;;;8.85;2.20;;;;;;;20.17;51.00;101404.34;4993744;28;20912;-78
2023/06/06 01:01:43;;;;;;;5.97;2.35;;;;;;;20.23;50.72;101393.53;4975568;28;20441;-78
2023/06/06 01:04:09;;;;;;;5.65;2.03;;;;;;;20.14;51.12;101404.78;4993009;28;20392;-78
2023/06/06 01:06:37;;;;;;;8.27;2.20;;;;;;;20.08;51.31;101401.09;4992897;28;20392;-77
2023/06/06 01:09:07;;;;;;;7.47;2.50;;;;;;;20.13;51.20;101397.72;4991387;28;20468;-77
2023/06/06 01:11:58;;;;;;;6.23;2.40;;;;;;;20.05;51.28;101393.44;4991902;28;20854;-77
2023/06/06 01:14:35;;;;;;;5.53;2.03;;;;;;;20.09;51.22;101399.22;4991697;28;20396;-78
2023/06/06 01:17:03;;;;;;;6.95;2.15;;;;;;;20.09;51.34;101401.91;4993658;28;20404;-78
2023/06/06 01:19:32;;;;;;;6.37;1.93;;;;;;;20.06;51.18;101403.19;4991548;28;20452;-76
2023/06/06 01:21:58;;;;;;;7.20;2.37;;;;;;;20.02;51.33;101410.00;4990392;28;20807;-77
2023/06/06 01:24:24;;;;;;;7.53;2.20;;;;;;;20.07;51.20;101412.06;4989185;28;20401;-77
2023/06/06 01:26:51;;;;;;;5.80;2.03;;;;;;;20.10;51.28;101411.66;4973714;28;20398;-77
2023/06/06 01:29:17;;;;;;;6.63;2.47;;;;;;;20.21;50.92;101414.47;4988811;28;20823;-77
2023/06/06 01:31:49;;;;;;;8.43;2.10;;;;;;;20.24;50.77;101402.44;4988999;28;20851;-77
2023/06/06 01:34:30;;;;;;;7.40;2.10;;;;;;;20.22;50.77;101408.03;4988739;28;20386;-77
2023/06/06 01:36:56;;;;;;;6.53;2.20;;;;;;;20.09;51.00;101407.28;4988975;28;20934;-77
2023/06/06 01:39:22;;;;;;;8.63;2.33;;;;;;;20.00;51.30;101404.84;4988810;28;20611;-77
2023/06/06 01:41:53;;;;;;;6.32;2.15;;;;;;;19.93;51.33;101398.66;4988684;28;20863;-77
2023/06/06 01:44:21;;;;;;;8.88;2.38;;;;;;;19.91;51.34;101398.06;4990156;28;20610;-77
2023/06/06 01:46:47;;;;;;;8.63;2.30;;;;;;;19.91;51.60;101399.94;4992528;28;20802;-77
2023/06/06 01:49:15;;;;;;;6.77;2.27;;;;;;;19.95;51.42;101410.06;4992221;28;20866;-77
2023/06/06 01:51:41;;;;;;;8.57;2.00;;;;;;;20.02;51.04;101416.25;4991936;28;20389;-77
2023/06/06 01:54:07;;;;;;;6.70;2.10;;;;;;;20.05;51.16;101423.88;4992436;28;20390;-76
2023/06/06 01:56:35;;;;;;;6.80;2.30;;;;;;;19.95;51.21;101425.38;4992050;28;20516;-77
2023/06/06 01:59:01;;;;;;;5.93;2.17;;;;;;;19.96;51.17;101417.09;4994234;28;20425;-77
2023/06/06 02:01:28;;;;;;;7.85;3.00;;;;;;;20.05;51.02;101421.16;4993996;28;20508;-77
2023/06/06 02:03:54;;;;;;;7.55;2.50;;;;;;;20.16;50.90;101426.91;4994049;28;20392;-77
2023/06/06 02:06:20;;;;;;;7.60;2.20;;;;;;;20.12;50.80;101431.91;4994325;28;20389;-77
2023/06/06 02:08:47;;;;;;;6.47;1.90;;;;;;;20.05;50.82;101423.88;4995664;28;20385;-77
2023/06/06 02:11:13;;;;;;;8.05;2.20;;;;;;;20.11;50.89;101426.75;4995878;28;20462;-77
2023/06/06 02:13:38;;;;;;;5.83;1.83;;;;;;;20.05;51.13;101437.31;4995510;28;20394;-78
2023/06/06 02:16:04;;;;;;;9.50;2.20;;;;;;;19.97;51.19;101431.34;4995920;28;20389;-77
2023/06/06 02:18:30;;;;;;;7.93;2.17;;;;;;;19.78;51.48;101430.44;4996159;28;20389;-77
2023/06/06 02:20:55;;;;;;;6.33;2.00;;;;;;;19.65;51.48;101433.97;4996441;28;20867;-78
2023/06/06 02:23:21;;;;;;;5.63;1.92;;;;;;;19.65;51.68;101442.84;4995585;28;20898;-78
2023/06/06 02:25:48;;;;;;;7.38;2.05;;;;;;;19.62;51.87;101454.03;4995836;28;20390;-78
2023/06/06 02:28:14;;;;;;;6.97;1.87;;;;;;;19.57;51.80;101442.25;4995165;28;20456;-78
2023/06/06 02:30:40;;;;;;;7.37;2.10;;;;;;;19.55;51.66;101444.34;4996078;28;20385;-77
2023/06/06 02:33:06;;;;;;;9.27;2.20;;;;;;;19.44;51.94;101446.63;4995097;28;20382;-77
2023/06/06 02:35:31;;;;;;;6.82;2.13;;;;;;;19.46;52.23;101441.91;4978276;28;20677;-77
2023/06/06 02:37:57;;;;;;;7.13;2.10;;;;;;;19.53;52.00;101449.09;4996701;28;20464;-78
2023/06/06 02:40:23;;;;;;;5.85;2.08;;;;;;;19.60;51.85;101444.53;4978230;28;20812;-78
2023/06/06 02:42:48;;;;;;;6.93;2.15;;;;;;;19.50;51.84;101445.00;4995164;28;20378;-78
2023/06/06 02:45:13;;;;;;;5.73;1.80;;;;;;;19.42;51.86;101456.78;4995446;28;20875;-77
2023/06/06 02:47:39;;;;;;;7.63;1.90;;;;;;;19.44;51.79;101445.81;4994009;28;20386;-78
2023/06/06 02:50:06;;;;;;;6.97;2.00;;;;;;;19.51;51.70;101451.19;4994177;28;20433;-78
2023/06/06 02:52:32;;;;;;;7.57;1.92;;;;;;;19.51;51.70;101451.19;4995801;28;20393;-78
2023/06/06 02:54:58;;;;;;;6.57;1.90;;;;;;;19.50;51.62;101450.38;4995102;28;20847;-78
2023/06/06 02:57:24;;;;;;;7.32;1.85;;;;;;;19.40;51.83;101456.16;4994419;28;20417;-77
2023/06/06 02:59:50;;;;;;;7.63;2.03;;;;;;;19.40;51.76;101464.22;4994721;28;20755;-78
2023/06/06 03:02:16;;;;;;;6.72;1.90;;;;;;;19.38;51.79;101476.25;4993906;28;20382;-76
2023/06/06 03:04:46;;;;;;;7.60;1.70;;;;;;;19.48;51.45;101468.56;4994996;28;20414;-77
2023/06/06 03:07:12;;;;;;;6.15;1.65;;;;;;;19.55;51.24;101471.22;4994073;28;20746;-77
2023/06/06 03:09:39;;;;;;;4.53;1.40;;;;;;;19.58;51.05;101470.81;4994802;28;20385;-77
2023/06/06 03:12:05;;;;;;;7.65;1.90;;;;;;;19.55;51.27;101476.63;4994890;28;20385;-77
2023/06/06 03:14:30;;;;;;;5.10;1.83;;;;;;;19.50;51.62;101482.63;4995619;28;20926;-77
2023/06/06 03:16:56;;;;;;;6.28;1.98;;;;;;;19.46;52.01;101489.44;5013402;28;20396;-77
2023/06/06 03:19:23;;;;;;;6.20;1.97;;;;;;;19.33;52.40;101482.25;4996310;28;20430;-77
2023/06/06 03:21:49;;;;;;;6.13;1.88;;;;;;;19.23;52.52;101490.75;5011420;28;20423;-77
2023/06/06 03:24:15;;;;;;;7.73;1.97;;;;;;;19.06;53.02;101495.69;5011647;28;20376;-77
2023/06/06 03:26:44;;;;;;;5.35;1.80;;;;;;;19.15;52.70;101492.81;5012328;28;20573;-77
2023/06/06 03:29:10;;;;;;;5.03;1.80;;;;;;;19.13;52.80;101498.38;4996203;28;20388;-77
2023/06/06 03:31:37;;;;;;;5.70;1.83;;;;;;;19.11;52.44;101492.41;5010605;28;20438;-77
2023/06/06 03:34:03;;;;;;;7.90;1.80;;;;;;;19.10;52.51;101498.78;4996220;28;20431;-77
2023/06/06 03:36:32;;;;;;;8.13;1.95;;;;;;;18.99;52.50;101492.19;5014739;28;20424;-78
2023/06/06 03:39:01;;;;;;;7.53;1.90;;;;;;;19.11;52.36;101503.16;5025460;28;20491;-78
2023/06/06 03:41:27;;;;;;;7.10;1.75;;;;;;;19.12;52.21;101504.78;5025306;28;20375;-79
2023/06/06 03:43:53;;;;;;;5.57;1.80;;;;;;;19.16;52.13;101502.50;5022620;28;20416;-79
2023/06/06 03:46:18;;;;;;;5.55;2.00;;;;;;;19.24;51.89;101508.50;5017041;28;20457;-79
2023/06/06 03:48:44;;;;;;;4.10;1.47;;;;;;;19.25;51.77;101494.03;5014507;28;20376;-78
2023/06/06 03:51:09;;;;;;;6.90;1.80;;;;;;;19.33;51.81;101500.25;5014392;28;20455;-78
2023/06/06 03:53:35;;;;;;;9.03;2.67;;;;;;;19.36;51.80;101500.66;5012130;28;20788;-78
2023/06/06 03:56:01;;;;;;;6.80;2.10;;;;;;;19.26;51.94;101498.38;4996162;28;20746;-81
2023/06/06 03:58:27;;;;;;;7.88;2.20;;;;;;;19.44;51.72;101508.47;5009688;28;20398;-79
2023/06/06 04:00:52;;;;;;;8.20;1.93;;;;;;;19.44;51.30;101515.72;5011228;28;20404;-79
2023/06/06 04:03:18;;;;;;;6.20;1.87;;;;;;;19.43;51.21;101508.72;5011725;28;20392;-80
2023/06/06 04:05:47;;;;;;;5.75;1.60;;;;;;;19.25;50.82;101512.03;5010623;28;20384;-77
2023/06/06 04:08:12;;;;;;;9.90;2.00;;;;;;;19.26;50.42;101521.75;5008899;28;20454;-77
2023/06/06 04:10:38;;;;;;;10.35;1.70;;;;;;;19.28;50.27;101523.22;5012122;28;20392;-78
2023/06/06 04:13:03;;;;;;;6.70;1.63;;;;;;;19.19;50.00;101531.66;5013601;28;20948;-77
2023/06/06 04:15:29;;;;;;;9.77;1.87;;;;;;;19.34;49.76;101537.66;5011683;28;20384;-78
2023/06/06 04:17:54;;;;;;;4.33;1.60;;;;;;;19.34;49.64;101532.28;5011908;28;20391;-79
2023/06/06 04:20:20;;;;;;;5.63;1.60;;;;;;;19.24;49.73;101535.38;5012357;28;20760;-78
2023/06/06 04:22:45;;;;;;;7.45;1.73;;;;;;;19.24;49.71;101535.38;5014668;28;20392;-78
2023/06/06 04:25:14;;;;;;;7.27;1.90;;;;;;;19.16;49.65;101532.06;5011447;28;20389;-78
2023/06/06 04:27:40;;;;;;;7.90;1.40;;;;;;;19.20;49.11;101530.66;5013151;28;20773;-79
2023/06/06 04:30:06;;;;;;;6.60;1.63;;;;;;;19.12;49.24;101537.03;5011815;28;20428;-78
2023/06/06 04:32:32;;;;;;;4.80;1.27;;;;;;;19.27;48.97;101539.53;5011459;28;20392;-77
2023/06/06 04:34:58;;;;;;;4.30;1.30;;;;;;;19.25;48.72;101538.91;5011333;28;20446;-77
2023/06/06 04:37:25;;;;;;;6.28;1.80;;;;;;;19.43;48.48;101535.59;5009848;28;20406;-77
2023/06/06 04:39:53;;;;;;;6.80;1.40;;;;;;;19.38;48.25;101538.09;5009320;28;20420;-77
2023/06/06 04:42:23;;;;;;;6.43;1.77;;;;;;;19.29;48.43;101540.97;5012130;28;20396;-77
2023/06/06 04:44:49;;;;;;;4.95;1.38;;;;;;;19.42;48.24;101547.38;5012925;28;20388;-77
2023/06/06 04:47:18;;;;;;;6.30;1.45;;;;;;;19.43;48.19;101541.78;5012565;28;20483;-77
2023/06/06 04:49:46;;;;;;;9.75;2.00;;;;;;;19.56;48.34;101549.00;5012895;28;20757;-77
2023/06/06 04:52:15;;;;;;;6.27;1.57;;;;;;;19.52;47.75;101546.94;5012435;28;20405;-80
2023/06/06 04:54:42;;;;;;;4.53;1.63;;;;;;;19.58;47.71;101546.13;5012361;28;20391;-77
2023/06/06 04:57:09;;;;;;;8.40;1.80;;;;;;;19.75;47.39;101549.22;5009351;28;20515;-77
2023/06/06 04:59:37;;;;;;;3.78;1.30;;;;;;;19.81;46.83;101553.75;5007089;28;20471;-78
2023/06/06 05:02:03;;;;;;;3.03;1.20;;;;;;;19.97;46.81;101553.31;5009811;28;20398;-78
2023/06/06 05:04:32;;;;;;;8.20;1.20;;;;;;;19.93;46.71;101559.31;5011249;28;20415;-78
2023/06/06 05:06:58;;;;;;;5.70;1.50;;;;;;;19.92;46.84;101555.78;5011820;28;20384;-77
2023/06/06 05:09:24;;;;;;;5.43;1.53;;;;;;;20.03;46.70;101555.13;5011598;28;20379;-76
2023/06/06 05:11:52;;;;;;;7.00;1.50;;;;;;;20.30;46.67;101559.59;5012191;28;20427;-79
2023/06/06 05:14:27;;;;;;;6.45;1.42;;;;;;;20.15;45.90;101558.00;5012592;28;20423;-77
2023/06/06 05:16:57;;;;;;;5.68;1.40;;;;;;;20.21;46.04;101559.00;5012067;28;20836;-77
2023/06/06 05:19:22;;;;;;;7.60;1.90;;;;;;;20.30;45.66;101556.91;5003609;28;20501;-79
2023/06/06 05:21:48;;;;;;;9.13;2.20;;;;;;;20.32;45.53;101561.03;5015086;28;20383;-77
2023/06/06 05:24:15;;;;;;;7.47;2.13;;;;;;;20.47;45.51;101557.22;5015257;28;20380;-78
2023/06/06 05:26:41;;;;;;;6.25;1.60;;;;;;;20.43;45.03;101562.22;5014864;28;20710;-78
2023/06/06 05:29:07;;;;;;;7.95;1.70;;;;;;;20.48;44.94;101558.91;5014765;28;20388;-77
2023/06/06 05:31:33;;;;;;;6.67;1.70;;;;;;;20.51;44.76;101551.22;5012343;28;21083;-77
2023/06/06 05:34:00;;;;;;;6.47;1.83;;;;;;;20.62;44.48;101549.72;4987463;28;20399;-77
2023/06/06 05:36:25;;;;;;;9.48;2.13;;;;;;;20.71;44.29;101540.34;4998286;28;20389;-77
2023/06/06 05:38:51;;;;;;;5.43;1.70;;;;;;;20.88;43.70;101554.09;5007657;28;20418;-78
2023/06/06 05:41:18;;;;;;;5.53;1.63;;;;;;;20.92;43.40;101554.50;5017536;28;20390;-79
2023/06/06 05:43:47;;;;;;;7.25;1.90;;;;;;;20.86;43.24;101553.50;5012146;28;20405;-76
2023/06/06 05:46:14;;;;;;;6.80;1.63;;;;;;;20.71;43.14;101563.78;4991215;28;20406;-77
2023/06/06 05:48:40;;;;;;;6.27;1.30;;;;;;;20.71;43.00;101574.56;5004575;28;20706;-78
2023/06/06 05:51:07;;;;;;;7.07;1.80;;;;;;;20.68;43.17;101578.50;5012752;28;20500;-77
2023/06/06 05:53:33;;;;;;;4.93;1.60;;;;;;;20.83;43.25;101577.38;4997083;28;20794;-77
2023/06/06 05:55:58;;;;;;;12.57;1.77;;;;;;;20.72;42.96;101568.91;4995953;28;20911;-79
2023/06/06 05:58:24;;;;;;;5.10;1.33;;;;;;;20.76;43.27;101572.00;4996877;28;20492;-80
2023/06/06 06:00:50;;;;;;;9.17;1.80;;;;;;;20.75;42.70;101581.97;4995678;28;20386;-77
2023/06/06 06:03:15;;;;;;;7.72;1.80;;;;;;;20.74;42.59;101574.09;5007339;28;20880;-78
2023/06/06 06:05:41;;;;;;;7.10;1.80;;;;;;;20.83;42.23;101596.22;5031822;28;20388;-77
2023/06/06 06:08:07;;;;;;;8.38;1.73;;;;;;;20.89;41.96;101592.69;5015736;28;20431;-77
2023/06/06 06:10:34;;;;;;;4.78;1.38;;;;;;;20.92;42.10;101586.84;4997791;28;20380;-78
2023/06/06 06:13:01;;;;;;;6.13;1.45;;;;;;;20.80;41.79;101595.63;5011298;28;20382;-77
2023/06/06 06:15:29;;;;;;;7.88;1.58;;;;;;;21.09;41.74;101584.47;5028155;28;20380;-79
2023/06/06 06:17:55;;;;;;;8.35;1.60;;;;;;;21.26;41.39;101599.03;5016373;28;20698;-78
2023/06/06 06:20:21;;;;;;;6.73;1.80;;;;;;;21.62;41.42;101591.28;5017910;28;21049;-78
2023/06/06 06:22:47;;;;;;;5.13;1.63;;;;;;;21.42;41.54;101583.34;5016330;28;20454;-77
2023/06/06 06:25:13;;;;;;;6.88;1.50;;;;;;;21.34;41.15;101587.97;5015522;28;20447;-79
2023/06/06 06:27:40;;;;;;;6.57;1.58;;;;;;;21.50;40.72;101588.47;5017485;28;20821;-79
2023/06/06 06:30:07;;;;;;;6.30;1.42;;;;;;;21.44;40.78;101590.16;5015993;28;20376;-79
2023/06/06 06:32:33;;;;;;;5.63;1.80;;;;;;;21.52;40.75;101581.84;5016148;28;20384;-79
2023/06/06 06:35:01;;;;;;;5.82;1.40;;;;;;;21.55;40.51;101576.00;5017200;28;20388;-80
2023/06/06 06:37:29;;;;;;;5.35;1.40;;;;;;;21.77;40.83;101578.28;5015657;28;20388;-78
2023/06/06 06:39:55;;;;;;;6.10;1.50;;;;;;;21.59;40.28;101581.78;5014298;28;20403;-77
2023/06/06 06:42:21;;;;;;;5.82;1.65;;;;;;;21.73;40.50;101586.00;5015153;28;20384;-78
2023/06/06 06:44:47;;;;;;;6.17;1.70;;;;;;;21.81;40.70;101575.97;5014743;28;20868;-78
2023/06/06 06:47:13;;;;;;;7.75;1.80;;;;;;;21.75;40.58;101580.34;5014906;28;20380;-78
2023/06/06 06:49:40;;;;;;;7.25;1.88;;;;;;;21.81;40.65;101581.38;5030898;28;20748;-77
2023/06/06 06:52:07;;;;;;;5.28;1.73;;;;;;;21.75;41.00;101575.81;5016662;28;20852;-76
2023/06/06 06:54:35;;;;;;;4.53;1.40;;;;;;;21.85;40.53;101575.28;5021138;28;20390;-77
2023/06/06 06:57:02;;;;;;;5.90;1.40;;;;;;;21.63;40.67;101577.59;5017973;28;20904;-79
2023/06/06 06:59:28;;;;;;;8.40;1.60;;;;;;;21.58;41.01;101577.41;5013667;28;20473;-77
2023/06/06 07:01:54;;;;;;;6.03;1.70;;;;;;;21.44;41.31;101573.16;5017409;28;20420;-77
2023/06/06 07:04:20;;;;;;;5.28;1.40;;;;;;;21.48;41.14;101569.84;5012994;28;20392;-79
2023/06/06 07:06:46;;;;;;;6.20;1.50;;;;;;;21.74;41.20;101570.63;5007875;28;20387;-77
2023/06/06 07:09:13;;;;;;;6.63;1.60;;;;;;;21.91;41.12;101565.44;4996444;28;20388;-77
2023/06/06 07:11:39;;;;;;;6.65;1.55;;;;;;;22.01;40.45;101576.56;5015811;28;20416;-78
2023/06/06 07:14:04;;;;;;;7.80;1.63;;;;;;;22.24;40.37;101569.66;5014379;28;20376;-77
2023/06/06 07:16:31;;;;;;;6.88;1.60;;;;;;;22.49;39.89;101574.94;5014419;28;20380;-78
2023/06/06 07:18:56;;;;;;;8.40;1.90;;;;;;;22.73;39.62;101572.34;4997610;28;20427;-82
2023/06/06 07:21:22;;;;;;;5.57;1.80;;;;;;;22.71;39.48;101573.41;5016994;28;20392;-78
2023/06/06 07:23:48;;;;;;;7.97;1.75;;;;;;;22.96;39.73;101576.97;5016081;28;20388;-78
2023/06/06 07:26:19;;;;;;;4.95;1.73;;;;;;;23.13;38.83;101575.28;5014414;28;20388;-78
2023/06/06 07:28:45;;;;;;;6.20;1.88;;;;;;;23.15;39.14;101578.59;5016053;28;20853;-78
2023/06/06 07:31:10;;;;;;;7.15;1.58;;;;;;;23.39;39.29;101579.44;5015347;28;20864;-80
2023/06/06 07:33:36;;;;;;;5.07;1.80;;;;;;;23.46;38.68;101573.91;5017171;28;20384;-80
2023/06/06 07:36:03;;;;;;;5.20;1.40;;;;;;;23.65;38.84;101582.75;5000184;28;20873;-76
2023/06/06 07:38:28;;;;;;;7.75;1.83;;;;;;;23.49;38.56;101584.25;5015097;28;20411;-77
2023/06/06 07:40:54;;;;;;;8.13;1.80;;;;;;;23.45;38.54;101566.84;5013906;28;20849;-77
2023/06/06 07:43:19;;;;;;;5.70;1.70;;;;;;;23.58;38.41;101572.03;4994563;28;20779;-77
2023/06/06 07:45:45;;;;;;;7.23;1.73;;;;;;;23.52;38.19;101572.16;5012881;28;20376;-77
2023/06/06 07:48:10;;;;;;;9.95;1.70;;;;;;;23.32;38.78;101584.16;4996053;28;20753;-78
2023/06/06 07:50:36;;;;;;;6.27;1.63;;;;;;;23.55;38.05;101568.97;5014406;28;20813;-78
2023/06/06 07:53:02;;;;;;;5.75;1.40;;;;;;;23.88;38.09;101573.81;5015368;28;20383;-79
2023/06/06 07:55:28;;;;;;;6.73;1.80;;;;;;;23.92;38.04;101584.97;5014140;28;20511;-77
2023/06/06 07:57:56;;;;;;;7.60;1.92;;;;;;;23.98;37.95;101578.59;5013537;28;20376;-77
2023/06/06 08:00:22;;;;;;;6.97;1.70;;;;;;;23.97;37.88;101576.97;4996804;28;20419;-77
2023/06/06 08:02:47;;;;;;;5.35;1.33;;;;;;;24.03;38.16;101587.66;4999003;28;20857;-79
2023/06/06 08:05:13;;;;;;;6.67;1.70;;;;;;;24.05;38.06;101580.09;5014586;28;20380;-77
2023/06/06 08:07:38;;;;;;;5.90;2.00;;;;;;;24.07;37.73;101581.75;5013590;28;20391;-77
2023/06/06 08:10:06;;;;;;;4.32;1.50;;;;;;;24.13;37.42;101581.63;5016340;28;20406;-78
2023/06/06 08:12:32;;;;;;;6.55;2.00;;;;;;;24.16;37.75;101580.31;5014947;28;20479;-78
2023/06/06 08:14:58;;;;;;;5.82;1.58;;;;;;;24.23;37.59;101591.84;5015354;28;20876;-79
2023/06/06 08:17:24;;;;;;;6.85;1.60;;;;;;;24.20;37.55;101581.47;5016852;28;20459;-78
2023/06/06 08:19:50;;;;;;;6.85;1.60;;;;;;;24.28;37.00;101574.88;5015217;28;20958;-81
2023/06/06 08:22:15;;;;;;;9.50;1.80;;;;;;;24.41;36.78;101585.44;5014145;28;20892;-78
2023/06/06 08:24:41;;;;;;;3.93;1.30;;;;;;;24.53;36.14;101583.53;5013893;28;20376;-78
2023/06/06 08:27:07;;;;;;;6.65;1.40;;;;;;;24.60;35.77;101584.22;5014860;28;20434;-78
2023/06/06 08:29:33;;;;;;;7.93;1.60;;;;;;;24.68;36.25;101574.03;5014171;28;20369;-77
2023/06/06 08:32:01;;;;;;;6.80;1.60;;;;;;;24.88;35.50;101585.22;5013974;28;20376;-79
2023/06/06 08:34:27;;;;;;;4.55;1.42;;;;;;;24.90;35.50;101591.25;5014061;28;20860;-78
2023/06/06 08:36:54;;;;;;;7.43;1.58;;;;;;;24.73;35.05;101577.66;4998079;28;20407;-81
2023/06/06 08:39:21;;;;;;;5.55;1.52;;;;;;;24.48;35.66;101582.59;5014643;28;20880;-78
2023/06/06 08:41:51;;;;;;;6.55;1.50;;;;;;;24.78;34.96;101583.19;5015121;28;20375;-79
2023/06/06 08:44:19;;;;;;;4.75;1.65;;;;;;;24.87;34.81;101578.19;5015100;28;20376;-78
2023/06/06 08:46:46;;;;;;;6.50;2.30;;;;;;;25.04;34.74;101571.94;5012965;28;20877;-79
2023/06/06 08:49:15;;;;;;;6.45;1.63;;;;;;;24.74;34.70;101570.34;5015286;28;20372;-78
2023/06/06 08:51:41;;;;;;;4.95;1.73;;;;;;;24.74;34.57;101571.19;5014057;28;20889;-78
2023/06/06 08:54:07;;;;;;;6.80;1.92;;;;;;;24.83;34.41;101566.19;5014139;28;20422;-79
2023/06/06 08:56:35;;;;;;;5.10;1.63;;;;;;;24.90;34.68;101561.44;5016492;28;20499;-82
2023/06/06 08:59:01;;;;;;;8.93;2.38;;;;;;;24.86;34.59;101568.38;5016849;28;20392;-80
2023/06/06 09:01:27;;;;;;;9.25;2.90;;;;;;;25.14;34.72;101550.41;4997814;28;20380;-81
2023/06/06 09:03:57;;;;;;;8.02;2.55;;;;;;;25.17;33.52;101553.47;5016418;28;20410;-80
2023/06/06 09:06:23;;;;;;;9.23;2.67;;;;;;;25.33;33.35;101559.13;5015055;28;20382;-78
2023/06/06 09:08:49;;;;;;;10.95;2.55;;;;;;;25.11;32.89;101554.44;5014415;28;20471;-80
2023/06/06 09:11:17;;;;;;;6.55;2.60;;;;;;;25.06;32.91;101543.50;5015254;28;20704;-77
2023/06/06 09:13:44;;;;;;;7.07;2.78;;;;;;;25.25;33.49;101546.81;5015010;28;21077;-79
2023/06/06 09:16:11;;;;;;;10.43;2.60;;;;;;;25.42;33.49;101549.50;5013230;28;20423;-81
2023/06/06 09:18:38;;;;;;;4.63;1.90;;;;;;;25.60;33.04;101534.81;5013883;28;20773;-78
2023/06/06 09:21:03;;;;;;;7.47;2.40;;;;;;;25.66;32.72;101541.97;4988592;28;20919;-77
2023/06/06 09:23:32;;;;;;;7.40;2.33;;;;;;;25.74;32.87;101532.56;4996870;28;20381;-78
2023/06/06 09:25:58;;;;;;;6.63;2.10;;;;;;;25.74;32.77;101533.38;4987192;28;20400;-78
2023/06/06 09:28:38;;;;;;;6.37;1.90;;;;;;;25.68;32.34;101534.41;4985480;28;20391;-80
2023/06/06 09:31:23;;;;;;;5.90;1.90;;;;;;;25.48;32.22;101531.38;4990108;28;20393;-76
2023/06/06 09:33:50;;;;;;;7.13;2.13;;;;;;;25.54;32.61;101528.50;4973984;28;20398;-78
2023/06/06 09:36:18;;;;;;;6.27;1.70;;;;;;;25.50;32.17;101527.38;4973579;28;20437;-78
2023/06/06 09:38:43;;;;;;;6.40;1.70;;;;;;;25.65;31.58;101518.59;4971580;28;20502;-78
2023/06/06 09:41:09;;;;;;;10.13;2.40;;;;;;;25.86;31.88;101519.69;4967544;28;20488;-78
2023/06/06 09:43:37;;;;;;;7.13;1.70;;;;;;;25.68;30.52;101512.66;4977262;28;20495;-77
2023/06/06 09:46:05;;;;;;;7.40;1.88;;;;;;;25.68;31.17;101523.53;4964266;28;20426;-79
2023/06/06 09:48:31;;;;;;;8.87;1.93;;;;;;;25.50;31.28;101527.38;4975089;28;20877;-77
2023/06/06 09:50:57;;;;;;;9.15;1.90;;;;;;;25.42;30.92;101525.06;4973771;28;20401;-79
2023/06/06 09:53:27;;;;;;;8.27;2.00;;;;;;;25.53;31.54;101521.44;4973035;28;20434;-79
2023/06/06 09:55:55;;;;;;;6.13;1.87;;;;;;;25.70;31.89;101518.66;4986705;28;21110;-78
2023/06/06 09:58:22;;;;;;;6.22;2.25;;;;;;;25.99;31.96;101506.84;5002699;28;20857;-78
2023/06/06 10:00:48;;;;;;;6.97;1.70;;;;;;;26.09;32.17;101507.75;5002020;28;20420;-80
2023/06/06 10:03:18;;;;;;;8.93;2.17;;;;;;;26.15;32.41;101505.09;5005191;28;20395;-79
2023/06/06 10:05:51;;;;;;;7.05;1.75;;;;;;;26.38;31.73;101510.25;5000340;28;20906;-78
2023/06/06 10:08:18;;;;;;;7.25;1.90;;;;;;;26.16;32.03;101504.81;5004867;28;20490;-78
2023/06/06 10:10:48;;;;;;;10.95;2.08;;;;;;;26.00;32.21;101490.28;5003425;28;20404;-77
2023/06/06 10:13:15;;;;;;;6.90;1.80;;;;;;;26.17;32.00;101492.09;5002177;28;20414;-79
2023/06/06 10:15:41;;;;;;;6.87;1.90;;;;;;;26.30;32.12;101484.31;5005210;28;20474;-80
2023/06/06 10:18:09;;;;;;;6.67;2.00;;;;;;;25.97;32.49;101488.06;4996487;28;20808;-77
2023/06/06 10:20:35;;;;;;;7.60;1.73;;;;;;;26.03;32.42;101478.06;4989038;28;20431;-77
2023/06/06 10:23:01;;;;;;;9.93;2.60;;;;;;;26.10;32.45;101484.94;5002739;28;20872;-77
2023/06/06 10:25:27;;;;;;;6.50;2.22;;;;;;;26.27;32.29;101475.88;5002642;28;20503;-78
2023/06/06 10:28:02;;;;;;;8.23;1.98;;;;;;;26.35;31.90;101475.41;5009252;28;20515;-77
2023/06/06 10:30:37;;;;;;;5.55;1.55;;;;;;;26.19;32.14;101476.34;5007649;28;20404;-79
2023/06/06 10:33:13;;;;;;;7.38;1.73;;;;;;;26.35;32.29;101480.03;5013381;28;20396;-79
2023/06/06 10:35:43;;;;;;;5.10;1.50;;;;;;;26.33;32.31;101464.78;5023817;28;20469;-80
2023/06/06 10:38:09;;;;;;;5.78;1.58;;;;;;;26.30;31.83;101478.88;5031751;28;20419;-78
2023/06/06 10:40:50;;;;;;;4.07;1.30;;;;;;;26.14;31.34;101466.22;5021779;28;20419;-79
2023/06/06 10:43:33;;;;;;;6.72;1.60;;;;;;;26.01;31.52;101466.63;5017975;28;20380;-79
2023/06/06 10:45:59;;;;;;;7.15;1.70;;;;;;;26.03;31.75;101462.59;5016943;28;20392;-80
2023/06/06 10:48:40;;;;;;;6.97;2.22;;;;;;;25.88;31.29;101462.41;5016157;28;20391;-80
2023/06/06 10:51:29;;;;;;;7.90;1.90;;;;;;;26.09;31.61;101452.59;5014306;28;20446;-79
2023/06/06 10:54:26;;;;;;;7.93;1.83;;;;;;;26.18;31.50;101458.38;5015936;28;20384;-78
2023/06/06 10:56:55;;;;;;;8.88;1.77;;;;;;;26.12;31.06;101454.78;5015378;28;20415;-77
2023/06/06 10:59:31;;;;;;;6.10;1.65;;;;;;;26.22;31.21;101454.09;5013428;28;20450;-80
2023/06/06 11:01:58;;;;;;;7.93;1.95;;;;;;;26.49;31.24;101445.91;5014945;28;20387;-77
2023/06/06 11:04:27;;;;;;;4.80;1.55;;;;;;;26.40;30.57;101453.72;5015162;28;20852;-79
2023/06/06 11:07:00;;;;;;;7.85;1.67;;;;;;;26.04;30.89;101455.28;4997092;28;20385;-79
2023/06/06 11:09:31;;;;;;;7.75;1.70;;;;;;;26.09;31.24;101447.16;5015198;28;20470;-80
2023/06/06 11:12:16;;;;;;;8.18;1.85;;;;;;;26.20;31.55;101450.78;5014063;28;20384;-78
2023/06/06 11:15:07;;;;;;;7.07;1.90;;;;;;;25.77;31.66;101442.44;5003228;28;20396;-79
2023/06/06 11:17:45;;;;;;;8.88;2.20;;;;;;;25.90;31.79;101435.78;5011550;28;20488;-80
2023/06/06 11:20:18;;;;;;;5.55;1.60;;;;;;;26.06;31.59;101437.63;5016555;28;20428;-79
2023/06/06 11:22:51;;;;;;;9.05;2.10;;;;;;;25.94;31.83;101437.75;4980786;28;20426;-78
2023/06/06 11:25:23;;;;;;;5.60;1.50;;;;;;;25.94;31.47;101435.03;4995470;28;20393;-80